Time;durP1;ratioP1;P1;durP2;ratioP2;P2;SDS_P1;SDS_P2;PMS_P1;PMS_P2;Temp;Humidity;BMP_temperature;BMP_pressure;BME280_temperature;BME280_humidity;BME280_pressure;Samples;Min_cycle;Max_cycle;Signal;HPM_P1;HPM_P2
2023/04/02 00:01:02;;;;;;;;;3.50;3.50;;;;;;;;5047754;28;49654;-71
2023/04/02 00:03:43;;;;;;;;;5.50;5.00;;;;;;;;5050741;28;50041;-71
2023/04/02 00:06:32;;;;;;;;;6.00;4.50;;;;;;;;5050714;28;50874;-71
2023/04/02 00:09:03;;;;;;;;;6.00;4.50;;;;;;;;5051133;28;49873;-71
2023/04/02 00:11:30;;;;;;;;;2.25;2.25;;;;;;;;5032575;28;49799;-71
2023/04/02 00:13:59;;;;;;;;;5.25;5.00;;;;;;;;5050989;28;50486;-72
2023/04/02 00:16:26;;;;;;;;;4.75;4.75;;;;;;;;5049595;28;50997;-71
2023/04/02 00:18:53;;;;;;;;;4.00;4.00;;;;;;;;5050325;28;49792;-71
2023/04/02 08:02:55;;;;;;;;;11.75;11.50;;;;;;;;5069446;22;51712;-70
2023/04/02 08:05:21;;;;;;;;;9.50;9.50;;;;;;;;5067374;27;49651;-71
2023/04/02 08:07:55;;;;;;;;;11.50;10.25;;;;;;;;5067020;27;50065;-72
2023/04/02 08:10:20;;;;;;;;;14.50;12.50;;;;;;;;5068237;27;49688;-71
2023/04/02 08:12:45;;;;;;;;;15.00;12.00;;;;;;;;5049487;27;50166;-72
2023/04/02 08:15:14;;;;;;;;;15.75;14.00;;;;;;;;5068923;27;50004;-73
2023/04/02 08:17:40;;;;;;;;;19.75;16.75;;;;;;;;5063047;27;50934;-72
2023/04/02 08:20:06;;;;;;;;;15.50;14.00;;;;;;;;5071296;27;49758;-73
2023/04/02 08:22:32;;;;;;;;;20.75;16.25;;;;;;;;5072181;27;50199;-72
2023/04/02 08:24:57;;;;;;;;;9.25;6.25;;;;;;;;5083232;27;50132;-72
2023/04/02 08:27:23;;;;;;;;;6.00;6.00;;;;;;;;5075384;27;49830;-71
2023/04/02 08:29:49;;;;;;;;;19.75;17.50;;;;;;;;5079115;27;49845;-70
2023/04/02 08:32:15;;;;;;;;;14.00;14.00;;;;;;;;5071671;27;49637;-71
2023/04/02 08:34:40;;;;;;;;;17.75;16.75;;;;;;;;5072154;27;49895;-72
2023/04/02 08:37:06;;;;;;;;;14.25;11.50;;;;;;;;5070616;27;50934;-70
2023/04/02 08:39:33;;;;;;;;;36.75;30.75;;;;;;;;5071083;27;49929;-71
2023/04/02 08:42:05;;;;;;;;;11.50;8.25;;;;;;;;5073743;27;49865;-73
2023/04/02 08:44:31;;;;;;;;;27.25;25.00;;;;;;;;5069055;27;49749;-72
2023/04/02 08:47:02;;;;;;;;;20.75;20.50;;;;;;;;5060408;27;52144;-72
2023/04/02 08:49:51;;;;;;;;;20.00;20.00;;;;;;;;5070533;27;50032;-72
2023/04/02 08:52:22;;;;;;;;;14.25;10.50;;;;;;;;5059373;27;49724;-71
2023/04/02 08:54:47;;;;;;;;;18.50;14.75;;;;;;;;5071537;27;49802;-72
2023/04/02 08:57:13;;;;;;;;;7.25;7.25;;;;;;;;5086880;27;50633;-72
2023/04/02 08:59:39;;;;;;;;;15.80;9.40;;;;;;;;5071426;27;50097;-71
2023/04/02 09:02:17;;;;;;;;;13.00;10.00;;;;;;;;5070857;27;49951;-73
2023/04/02 09:04:43;;;;;;;;;11.75;10.00;;;;;;;;5071249;27;50032;-72
2023/04/02 09:07:15;;;;;;;;;17.50;14.50;;;;;;;;5070505;27;51971;-71
2023/04/02 09:09:41;;;;;;;;;10.50;8.75;;;;;;;;5051850;28;49789;-72
2023/04/02 09:12:15;;;;;;;;;17.25;14.50;;;;;;;;5070872;27;49759;-72
2023/04/02 09:14:43;;;;;;;;;11.25;9.75;;;;;;;;5070708;27;50323;-73
2023/04/02 09:17:16;;;;;;;;;15.50;13.00;;;;;;;;5072317;27;50805;-72
2023/04/02 09:19:43;;;;;;;;;14.75;14.00;;;;;;;;5070762;27;49988;-72
2023/04/02 09:22:26;;;;;;;;;36.75;31.50;;;;;;;;5070789;27;49749;-72
2023/04/02 09:24:58;;;;;;;;;20.00;15.50;;;;;;;;5070850;27;50064;-73
2023/04/02 09:27:28;;;;;;;;;14.75;14.75;;;;;;;;5068797;27;50297;-74
2023/04/02 09:30:02;;;;;;;;;18.00;15.25;;;;;;;;5068967;27;49898;-73
2023/04/02 09:32:47;;;;;;;;;16.25;11.75;;;;;;;;5067381;27;49876;-73
2023/04/02 09:35:17;;;;;;;;;19.00;14.75;;;;;;;;5066687;27;50093;-73
2023/04/02 09:37:43;;;;;;;;;17.25;15.50;;;;;;;;5086861;27;51102;-73
2023/04/02 09:40:15;;;;;;;;;21.25;15.75;;;;;;;;5066933;27;49714;-73
2023/04/02 09:42:41;;;;;;;;;15.00;11.75;;;;;;;;5066280;27;50073;-73
2023/04/02 09:45:13;;;;;;;;;11.25;10.50;;;;;;;;5061938;27;50412;-74
2023/04/02 09:47:39;;;;;;;;;15.50;14.00;;;;;;;;5067548;27;50643;-72
2023/04/02 09:50:19;;;;;;;;;14.50;13.25;;;;;;;;5060095;27;49738;-73
2023/04/02 09:52:45;;;;;;;;;12.75;10.50;;;;;;;;5061840;27;50020;-71
2023/04/02 09:55:18;;;;;;;;;17.75;16.00;;;;;;;;5060171;27;50071;-71
2023/04/02 09:57:43;;;;;;;;;11.00;8.50;;;;;;;;5065204;27;50669;-72
2023/04/02 10:00:17;;;;;;;;;8.00;6.50;;;;;;;;5072774;27;50533;-72
2023/04/02 10:02:44;;;;;;;;;15.00;14.00;;;;;;;;5072245;27;49883;-71
2023/04/02 10:05:20;;;;;;;;;5.50;5.25;;;;;;;;5048966;28;49989;-74
2023/04/02 10:07:47;;;;;;;;;8.75;7.50;;;;;;;;5067204;27;50741;-73
2023/04/02 10:10:25;;;;;;;;;14.50;11.50;;;;;;;;5065858;27;50586;-72
2023/04/02 10:12:57;;;;;;;;;10.75;10.00;;;;;;;;5066329;27;50123;-72
2023/04/02 10:15:27;;;;;;;;;12.50;11.00;;;;;;;;5065324;27;50092;-71
2023/04/02 10:18:01;;;;;;;;;8.25;8.25;;;;;;;;5065123;27;49975;-73
2023/04/02 10:20:28;;;;;;;;;10.50;9.00;;;;;;;;5066511;27;49799;-74
2023/04/02 10:22:53;;;;;;;;;14.50;14.00;;;;;;;;5066863;27;49953;-73
2023/04/02 10:25:20;;;;;;;;;9.25;9.00;;;;;;;;5066248;27;49836;-74
2023/04/02 10:27:55;;;;;;;;;12.25;11.25;;;;;;;;5075465;27;51183;-74
2023/04/02 10:30:39;;;;;;;;;13.00;12.75;;;;;;;;5058633;27;49756;-73
2023/04/02 10:33:14;;;;;;;;;13.00;11.00;;;;;;;;5068825;27;49638;-70
2023/04/02 10:36:05;;;;;;;;;14.00;10.75;;;;;;;;5069804;27;49923;-70
2023/04/02 10:38:41;;;;;;;;;11.25;11.25;;;;;;;;5033659;27;51117;-76
2023/04/02 10:41:06;;;;;;;;;14.75;12.25;;;;;;;;5068654;27;50032;-74
2023/04/02 10:43:50;;;;;;;;;16.80;14.20;;;;;;;;5069311;27;49905;-76
2023/04/02 10:46:18;;;;;;;;;22.50;19.75;;;;;;;;5051376;28;49691;-75
2023/04/02 10:48:50;;;;;;;;;17.75;15.00;;;;;;;;5067733;27;50963;-78
2023/04/02 10:51:25;;;;;;;;;21.00;14.75;;;;;;;;5075859;27;49809;-76
2023/04/02 10:53:51;;;;;;;;;17.50;15.50;;;;;;;;5061851;27;49984;-73
2023/04/02 10:56:16;;;;;;;;;23.25;22.00;;;;;;;;5076071;27;49840;-74
2023/04/02 10:58:51;;;;;;;;;24.00;21.50;;;;;;;;5050771;28;50084;-74
2023/04/02 11:01:22;;;;;;;;;27.75;21.25;;;;;;;;5063925;27;50237;-74
2023/04/02 11:04:08;;;;;;;;;19.75;17.75;;;;;;;;5071447;27;50190;-74
2023/04/02 11:06:40;;;;;;;;;15.00;15.00;;;;;;;;5036878;28;49709;-73
2023/04/02 11:09:13;;;;;;;;;18.25;18.25;;;;;;;;5068778;27;50717;-74
2023/04/02 11:11:40;;;;;;;;;18.75;16.25;;;;;;;;5068199;27;49724;-75
2023/04/02 11:14:12;;;;;;;;;17.75;16.25;;;;;;;;5079006;27;49861;-78
2023/04/02 11:16:37;;;;;;;;;16.25;14.50;;;;;;;;5073944;27;50080;-73
2023/04/02 11:19:17;;;;;;;;;19.75;18.50;;;;;;;;5073148;27;49808;-74
2023/04/02 11:21:44;;;;;;;;;20.25;19.00;;;;;;;;5066048;27;49983;-73
2023/04/02 11:24:21;;;;;;;;;22.00;19.50;;;;;;;;5051260;28;49955;-73
2023/04/02 11:26:47;;;;;;;;;18.00;16.50;;;;;;;;5066172;27;50095;-73
2023/04/02 11:29:12;;;;;;;;;18.00;14.75;;;;;;;;5067855;27;50344;-73
2023/04/02 11:31:37;;;;;;;;;15.60;12.00;;;;;;;;5064891;27;49705;-74
2023/04/02 11:34:02;;;;;;;;;22.25;18.00;;;;;;;;5066720;27;49741;-73
2023/04/02 11:36:46;;;;;;;;;14.75;14.75;;;;;;;;5067253;27;50309;-73
2023/04/02 11:39:11;;;;;;;;;13.00;12.00;;;;;;;;5065181;27;50775;-72
2023/04/02 11:41:55;;;;;;;;;12.50;12.00;;;;;;;;5066317;27;50485;-74
2023/04/02 11:44:22;;;;;;;;;11.00;11.00;;;;;;;;5065989;27;49665;-76
2023/04/02 11:46:47;;;;;;;;;19.50;15.25;;;;;;;;5064890;27;50529;-74
2023/04/02 11:49:31;;;;;;;;;15.25;14.25;;;;;;;;5066775;27;51434;-75
2023/04/02 11:51:56;;;;;;;;;18.25;16.00;;;;;;;;5068039;27;49875;-74
2023/04/02 11:54:25;;;;;;;;;17.50;15.00;;;;;;;;5070042;27;49740;-78
2023/04/02 11:56:56;;;;;;;;;17.00;15.00;;;;;;;;5078883;27;49973;-74
2023/04/02 11:59:25;;;;;;;;;18.50;16.75;;;;;;;;5064416;27;49751;-73
2023/04/02 12:02:00;;;;;;;;;12.25;12.25;;;;;;;;5076976;27;50025;-74
2023/04/02 12:04:25;;;;;;;;;13.00;13.00;;;;;;;;5071545;27;50114;-75
2023/04/02 12:07:10;;;;;;;;;13.80;12.00;;;;;;;;5072030;27;49906;-75
2023/04/02 12:09:35;;;;;;;;;15.00;12.25;;;;;;;;5070932;27;50997;-70
2023/04/02 12:12:13;;;;;;;;;15.25;15.00;;;;;;;;5071545;27;49751;-71
2023/04/02 12:14:46;;;;;;;;;11.75;11.00;;;;;;;;5071358;27;49846;-70
2023/04/02 12:17:18;;;;;;;;;14.25;13.00;;;;;;;;5069522;27;49975;-72
2023/04/02 12:19:48;;;;;;;;;13.75;13.50;;;;;;;;5072916;27;50714;-70
2023/04/02 12:22:17;;;;;;;;;12.25;10.50;;;;;;;;5071495;27;50304;-69
2023/04/02 12:24:45;;;;;;;;;15.75;14.50;;;;;;;;5068263;27;50009;-71
2023/04/02 12:27:21;;;;;;;;;17.75;15.50;;;;;;;;5072856;27;50366;-72
2023/04/02 12:29:46;;;;;;;;;11.00;11.00;;;;;;;;5070060;27;50100;-71
2023/04/02 12:32:19;;;;;;;;;14.50;13.25;;;;;;;;5073631;27;50028;-70
2023/04/02 12:34:45;;;;;;;;;15.25;13.25;;;;;;;;5070641;27;49766;-70
2023/04/02 12:37:18;;;;;;;;;15.50;15.50;;;;;;;;5072809;27;49991;-70
2023/04/02 12:39:50;;;;;;;;;16.75;14.75;;;;;;;;5074474;27;51076;-70
2023/04/02 12:42:30;;;;;;;;;32.25;30.25;;;;;;;;5070364;27;50162;-69
2023/04/02 12:44:55;;;;;;;;;21.25;19.75;;;;;;;;5079878;27;49697;-69
2023/04/02 12:47:20;;;;;;;;;24.50;20.25;;;;;;;;5052958;27;49901;-70
2023/04/02 12:49:46;;;;;;;;;21.50;15.50;;;;;;;;5066797;27;49813;-72
2023/04/02 12:52:13;;;;;;;;;22.00;18.25;;;;;;;;5069852;27;49831;-75
2023/04/02 12:54:49;;;;;;;;;22.50;21.00;;;;;;;;5050642;27;50159;-73
2023/04/02 12:57:24;;;;;;;;;21.00;19.75;;;;;;;;5071375;27;49970;-73
2023/04/02 12:59:49;;;;;;;;;21.75;20.75;;;;;;;;5069198;27;50968;-73
2023/04/02 13:02:19;;;;;;;;;26.00;20.50;;;;;;;;5073314;27;49786;-73
2023/04/02 13:04:48;;;;;;;;;18.75;16.00;;;;;;;;5051939;28;50905;-73
2023/04/02 13:07:16;;;;;;;;;27.75;26.75;;;;;;;;5045041;28;50048;-72
2023/04/02 13:09:44;;;;;;;;;21.00;19.75;;;;;;;;5052641;28;50924;-72
2023/04/02 13:12:23;;;;;;;;;12.75;11.25;;;;;;;;5059357;27;49829;-73
2023/04/02 13:14:53;;;;;;;;;16.75;13.75;;;;;;;;5057672;28;49842;-70
2023/04/02 13:17:37;;;;;;;;;10.00;9.75;;;;;;;;5049152;28;50064;-72
2023/04/02 13:20:20;;;;;;;;;17.25;13.50;;;;;;;;5046392;28;49934;-72
2023/04/02 13:22:45;;;;;;;;;21.75;18.25;;;;;;;;5055847;28;49962;-73
2023/04/02 13:25:11;;;;;;;;;18.00;12.25;;;;;;;;5048502;28;49697;-71
2023/04/02 13:27:36;;;;;;;;;17.50;15.75;;;;;;;;5052900;28;49795;-74
2023/04/02 13:30:09;;;;;;;;;12.50;10.00;;;;;;;;5053224;28;49779;-73
2023/04/02 13:32:35;;;;;;;;;10.75;9.50;;;;;;;;5050727;28;49735;-71
2023/04/02 13:35:00;;;;;;;;;17.50;15.00;;;;;;;;5053489;28;49912;-74
2023/04/02 13:37:25;;;;;;;;;19.00;17.75;;;;;;;;5050785;28;50017;-72
2023/04/02 13:39:50;;;;;;;;;15.00;12.25;;;;;;;;5059781;27;49798;-72
2023/04/02 13:42:16;;;;;;;;;10.75;10.75;;;;;;;;5056099;27;49918;-73
2023/04/02 13:44:41;;;;;;;;;9.50;7.00;;;;;;;;5050784;28;49682;-74
2023/04/02 13:47:12;;;;;;;;;13.75;11.00;;;;;;;;5052118;28;49768;-72
2023/04/02 13:49:37;;;;;;;;;9.75;8.25;;;;;;;;5039332;28;51073;-72
2023/04/02 13:52:04;;;;;;;;;9.50;9.50;;;;;;;;5053489;28;50204;-71
2023/04/02 13:54:49;;;;;;;;;16.00;14.75;;;;;;;;5051243;28;49727;-73
2023/04/02 13:57:15;;;;;;;;;9.75;9.25;;;;;;;;5044324;28;50145;-69
2023/04/02 13:59:40;;;;;;;;;14.25;13.25;;;;;;;;5046174;28;50685;-70
2023/04/02 14:02:26;;;;;;;;;22.50;20.50;;;;;;;;5044270;28;50001;-68
2023/04/02 14:04:54;;;;;;;;;13.75;13.75;;;;;;;;5059466;27;49799;-72
2023/04/02 14:07:40;;;;;;;;;10.50;9.50;;;;;;;;5062133;27;50245;-71
2023/04/02 14:10:20;;;;;;;;;8.00;8.00;;;;;;;;5060606;27;49927;-73
2023/04/02 14:13:05;;;;;;;;;13.50;11.00;;;;;;;;5062328;27;50233;-73
2023/04/02 14:15:51;;;;;;;;;12.25;10.50;;;;;;;;5060633;27;49952;-72
2023/04/02 14:18:22;;;;;;;;;10.00;9.75;;;;;;;;5005071;27;50219;-73
2023/04/02 14:21:03;;;;;;;;;12.00;11.75;;;;;;;;5068925;27;50993;-73
2023/04/02 14:23:47;;;;;;;;;10.25;10.25;;;;;;;;5060463;27;49835;-72
2023/04/02 14:26:20;;;;;;;;;16.25;14.75;;;;;;;;5069819;27;49745;-73
2023/04/02 14:28:48;;;;;;;;;15.00;14.00;;;;;;;;5073637;27;49729;-73
2023/04/02 14:31:13;;;;;;;;;15.50;13.00;;;;;;;;5070961;27;50071;-72
2023/04/02 14:33:44;;;;;;;;;17.40;13.80;;;;;;;;5072863;27;49821;-73
2023/04/02 14:36:22;;;;;;;;;12.50;11.75;;;;;;;;5071744;27;49985;-71
2023/04/02 14:38:53;;;;;;;;;17.50;15.00;;;;;;;;5065641;27;49782;-73
2023/04/02 14:41:27;;;;;;;;;20.00;15.75;;;;;;;;5069937;27;51266;-73
2023/04/02 14:43:57;;;;;;;;;17.25;15.50;;;;;;;;5065353;27;50046;-70
2023/04/02 14:46:24;;;;;;;;;16.25;14.25;;;;;;;;5066457;27;50183;-70
2023/04/02 14:48:59;;;;;;;;;18.00;15.25;;;;;;;;5067050;27;50354;-73
2023/04/02 14:51:35;;;;;;;;;10.25;10.25;;;;;;;;5070886;27;51234;-74
2023/04/02 14:54:15;;;;;;;;;15.00;15.00;;;;;;;;5066846;27;49835;-72
2023/04/02 14:56:52;;;;;;;;;17.75;14.50;;;;;;;;5065283;27;49839;-73
2023/04/02 14:59:24;;;;;;;;;21.25;17.75;;;;;;;;5047314;28;49788;-73
2023/04/02 15:01:53;;;;;;;;;10.25;6.75;;;;;;;;5064827;27;49808;-73
2023/04/02 15:04:44;;;;;;;;;15.00;15.00;;;;;;;;5064674;27;49775;-75
2023/04/02 15:07:17;;;;;;;;;18.00;17.50;;;;;;;;5061202;27;49984;-76
2023/04/02 15:09:49;;;;;;;;;10.00;10.00;;;;;;;;5065533;27;49877;-75
2023/04/02 15:12:25;;;;;;;;;16.00;14.50;;;;;;;;5066024;27;49779;-74
2023/04/02 15:14:54;;;;;;;;;11.50;11.50;;;;;;;;5063844;27;49744;-78
2023/04/02 15:17:19;;;;;;;;;16.50;15.00;;;;;;;;5065514;27;50069;-75
2023/04/02 15:19:45;;;;;;;;;20.75;13.50;;;;;;;;5045187;28;49805;-75
2023/04/02 15:22:30;;;;;;;;;9.50;9.00;;;;;;;;5064698;27;50797;-76
2023/04/02 15:25:30;;;;;;;;;13.75;9.50;;;;;;;;5064050;27;50695;-75
2023/04/02 15:28:08;;;;;;;;;20.00;16.50;;;;;;;;4985515;28;49834;-73
2023/04/02 15:30:35;;;;;;;;;14.25;12.75;;;;;;;;4984888;28;50098;-74
2023/04/02 15:33:19;;;;;;;;;16.00;15.25;;;;;;;;4984447;28;50486;-74
2023/04/02 15:35:51;;;;;;;;;18.75;15.75;;;;;;;;4985672;28;50448;-74
2023/04/02 15:38:21;;;;;;;;;14.75;13.50;;;;;;;;4987455;28;49861;-72
2023/04/02 15:40:50;;;;;;;;;20.50;15.25;;;;;;;;4985744;28;51144;-73
2023/04/02 15:43:15;;;;;;;;;14.25;14.00;;;;;;;;4969524;28;52374;-73
2023/04/02 15:45:50;;;;;;;;;9.50;6.50;;;;;;;;4986241;28;49823;-72
2023/04/02 15:48:33;;;;;;;;;16.50;15.50;;;;;;;;4984646;28;49834;-75
2023/04/02 15:51:02;;;;;;;;;21.25;18.25;;;;;;;;4987020;28;51511;-73
2023/04/02 15:53:38;;;;;;;;;26.50;20.00;;;;;;;;4986292;28;50739;-73
2023/04/02 15:56:03;;;;;;;;;17.75;16.25;;;;;;;;4985927;28;50246;-75
2023/04/02 15:58:41;;;;;;;;;17.80;15.80;;;;;;;;4987736;28;49730;-78
2023/04/02 16:01:25;;;;;;;;;27.00;24.50;;;;;;;;4998535;27;50005;-75
2023/04/02 16:04:00;;;;;;;;;20.50;18.25;;;;;;;;5069216;27;50341;-77
2023/04/02 16:06:31;;;;;;;;;18.25;18.25;;;;;;;;5069576;27;50163;-78
2023/04/02 16:09:15;;;;;;;;;23.50;18.00;;;;;;;;5069797;27;50222;-79
2023/04/02 16:11:40;;;;;;;;;17.50;16.25;;;;;;;;5052401;28;50064;-72
2023/04/02 16:14:21;;;;;;;;;17.75;17.50;;;;;;;;5070623;27;50797;-72
2023/04/02 16:16:49;;;;;;;;;14.75;13.50;;;;;;;;5066133;27;49706;-73
2023/04/02 16:19:25;;;;;;;;;5.00;4.75;;;;;;;;5071585;27;49996;-74
2023/04/02 16:22:13;;;;;;;;;13.75;13.50;;;;;;;;5071885;27;50117;-70
2023/04/02 16:24:38;;;;;;;;;19.00;16.75;;;;;;;;5057114;27;50938;-71
2023/04/02 16:27:03;;;;;;;;;14.25;13.25;;;;;;;;5081699;27;49996;-71
2023/04/02 16:29:52;;;;;;;;;17.60;13.40;;;;;;;;5074277;27;49795;-72
2023/04/02 16:32:36;;;;;;;;;17.50;15.00;;;;;;;;5070703;27;50046;-72
2023/04/02 16:35:01;;;;;;;;;23.25;22.75;;;;;;;;5060461;27;50886;-72
2023/04/02 16:37:38;;;;;;;;;25.50;23.75;;;;;;;;5069476;27;50182;-72
2023/04/02 16:40:06;;;;;;;;;40.00;27.50;;;;;;;;5070728;27;50148;-72
2023/04/02 16:42:48;;;;;;;;;26.50;24.00;;;;;;;;5070975;27;49593;-72
2023/04/02 16:45:32;;;;;;;;;43.00;36.75;;;;;;;;5071037;27;50088;-71
2023/04/02 16:48:03;;;;;;;;;38.00;32.75;;;;;;;;5058065;27;49872;-72
2023/04/02 16:50:28;;;;;;;;;32.50;28.25;;;;;;;;5076288;27;49791;-70
2023/04/02 16:53:02;;;;;;;;;30.25;23.00;;;;;;;;5066232;27;49800;-73
2023/04/02 16:55:47;;;;;;;;;26.75;24.00;;;;;;;;5066376;27;49964;-71
2023/04/02 16:58:21;;;;;;;;;30.75;27.25;;;;;;;;5070237;27;49854;-73
2023/04/02 17:00:52;;;;;;;;;30.75;26.00;;;;;;;;5076219;27;49817;-73
2023/04/02 17:03:29;;;;;;;;;29.75;26.00;;;;;;;;5076869;27;50045;-72
2023/04/02 17:06:15;;;;;;;;;32.75;26.00;;;;;;;;5066090;27;51121;-74
2023/04/02 17:08:50;;;;;;;;;17.50;17.50;;;;;;;;5066050;27;49732;-70
2023/04/02 17:11:48;;;;;;;;;26.00;23.50;;;;;;;;5052495;27;49820;-71
2023/04/02 17:14:21;;;;;;;;;22.50;22.25;;;;;;;;5028670;27;49895;-71
2023/04/02 17:16:49;;;;;;;;;30.50;27.25;;;;;;;;5070581;27;50815;-70
2023/04/02 17:19:15;;;;;;;;;22.25;21.25;;;;;;;;5070242;27;49847;-70
2023/04/02 17:21:43;;;;;;;;;21.75;20.00;;;;;;;;5070749;27;50255;-70
2023/04/02 17:24:22;;;;;;;;;22.50;19.50;;;;;;;;5072088;27;49751;-71
2023/04/02 17:26:51;;;;;;;;;25.25;22.50;;;;;;;;5069046;27;50152;-71
2023/04/02 17:29:19;;;;;;;;;24.75;21.00;;;;;;;;5077083;27;49791;-72
2023/04/02 17:31:45;;;;;;;;;23.75;23.00;;;;;;;;5050469;27;50010;-75
2023/04/02 17:34:17;;;;;;;;;25.25;24.50;;;;;;;;5070563;27;49899;-77
2023/04/02 17:36:54;;;;;;;;;14.25;14.25;;;;;;;;5069842;27;50323;-81
2023/04/02 17:39:34;;;;;;;;;20.00;18.25;;;;;;;;5070300;27;49660;-75
2023/04/02 17:42:09;;;;;;;;;30.75;26.50;;;;;;;;5070846;27;49843;-76
2023/04/02 17:44:57;;;;;;;;;25.25;22.75;;;;;;;;5066082;27;50032;-76
2023/04/02 17:47:28;;;;;;;;;10.75;9.50;;;;;;;;5069340;27;51040;-73
2023/04/02 17:49:57;;;;;;;;;28.75;27.25;;;;;;;;5077690;27;49759;-74
2023/04/02 17:52:26;;;;;;;;;25.75;24.00;;;;;;;;5076782;27;49937;-76
2023/04/02 17:55:04;;;;;;;;;29.25;27.00;;;;;;;;5070529;27;50012;-71
2023/04/02 17:57:47;;;;;;;;;27.25;24.75;;;;;;;;5068022;27;50084;-71
2023/04/02 18:00:15;;;;;;;;;28.25;25.25;;;;;;;;5069105;27;49825;-73
2023/04/02 18:02:40;;;;;;;;;32.75;24.50;;;;;;;;5075190;27;50862;-74
2023/04/02 18:05:16;;;;;;;;;25.25;24.50;;;;;;;;5069812;27;49738;-74
2023/04/02 18:07:54;;;;;;;;;26.00;24.75;;;;;;;;5071537;27;50287;-73
2023/04/02 18:10:38;;;;;;;;;28.75;24.75;;;;;;;;5076560;27;49666;-73
2023/04/02 18:13:31;;;;;;;;;41.00;31.50;;;;;;;;5065896;27;49835;-74
2023/04/02 18:16:00;;;;;;;;;33.75;27.50;;;;;;;;5066560;27;49891;-73
2023/04/02 18:18:32;;;;;;;;;23.00;20.25;;;;;;;;5079806;27;49888;-74
2023/04/02 18:21:27;;;;;;;;;27.00;20.25;;;;;;;;5070228;27;50222;-73
2023/04/02 18:23:53;;;;;;;;;25.25;20.75;;;;;;;;5054156;27;49946;-73
2023/04/02 18:26:27;;;;;;;;;21.00;20.50;;;;;;;;5054451;28;49798;-73
2023/04/02 18:28:52;;;;;;;;;24.75;24.25;;;;;;;;5048632;28;51882;-73
2023/04/02 18:31:27;;;;;;;;;26.75;24.25;;;;;;;;5067610;27;50043;-74
2023/04/02 18:34:01;;;;;;;;;29.50;25.00;;;;;;;;5057531;27;49757;-73
2023/04/02 18:36:38;;;;;;;;;26.25;22.00;;;;;;;;5066890;27;50075;-73
2023/04/02 18:39:08;;;;;;;;;26.00;22.00;;;;;;;;5054429;27;51037;-73
2023/04/02 18:41:40;;;;;;;;;30.50;24.75;;;;;;;;5070435;27;50165;-72
2023/04/02 18:44:24;;;;;;;;;30.00;27.50;;;;;;;;5068458;27;49758;-73
2023/04/02 18:46:51;;;;;;;;;29.25;27.50;;;;;;;;5075665;27;49768;-74
2023/04/02 18:49:34;;;;;;;;;27.75;23.75;;;;;;;;5072906;27;50913;-75
2023/04/02 18:52:01;;;;;;;;;30.75;26.25;;;;;;;;5062661;27;49802;-73
2023/04/02 18:54:35;;;;;;;;;26.50;22.50;;;;;;;;5072864;27;49933;-74
2023/04/02 18:57:08;;;;;;;;;25.25;23.00;;;;;;;;5068860;27;49984;-75
2023/04/02 18:59:37;;;;;;;;;29.00;27.75;;;;;;;;5065047;27;50885;-75
2023/04/02 19:02:14;;;;;;;;;26.75;22.50;;;;;;;;5081207;27;49794;-75
2023/04/02 19:04:45;;;;;;;;;32.25;26.50;;;;;;;;5028388;27;1130729;-74
2023/04/02 19:07:13;;;;;;;;;36.75;32.00;;;;;;;;5070394;27;50008;-74
2023/04/02 19:09:39;;;;;;;;;13.25;10.50;;;;;;;;5074854;27;50089;-75
2023/04/02 19:12:12;;;;;;;;;36.50;36.25;;;;;;;;5074872;27;50151;-73
2023/04/02 19:14:37;;;;;;;;;33.25;31.50;;;;;;;;5069136;27;49629;-74
2023/04/02 19:17:11;;;;;;;;;40.25;34.25;;;;;;;;5050681;28;49556;-73
2023/04/02 19:19:53;;;;;;;;;37.50;35.00;;;;;;;;5085757;27;51034;-74
2023/04/02 19:22:18;;;;;;;;;24.25;22.50;;;;;;;;5062946;27;50151;-74
2023/04/02 19:24:43;;;;;;;;;39.75;32.25;;;;;;;;5068716;27;49646;-73
2023/04/02 19:27:11;;;;;;;;;30.00;28.00;;;;;;;;5069053;27;49826;-74
2023/04/02 19:29:56;;;;;;;;;34.25;33.50;;;;;;;;5072982;27;50819;-73
2023/04/02 19:32:21;;;;;;;;;21.50;21.50;;;;;;;;5071969;27;49783;-73
2023/04/02 19:34:50;;;;;;;;;21.60;17.00;;;;;;;;5069921;27;49780;-74
2023/04/02 19:37:21;;;;;;;;;26.50;23.00;;;;;;;;5053350;27;50166;-74
2023/04/02 19:39:52;;;;;;;;;30.50;29.50;;;;;;;;5079326;27;49717;-75
2023/04/02 19:42:17;;;;;;;;;30.50;27.00;;;;;;;;5074671;27;50245;-75
2023/04/02 19:44:44;;;;;;;;;30.00;27.80;;;;;;;;5071021;27;50052;-74
2023/04/02 19:47:09;;;;;;;;;15.25;13.25;;;;;;;;5071806;27;49751;-74
2023/04/02 19:49:37;;;;;;;;;29.50;24.25;;;;;;;;5051080;27;50164;-74
2023/04/02 19:52:02;;;;;;;;;27.75;25.25;;;;;;;;5070922;27;49737;-74
2023/04/02 19:54:28;;;;;;;;;28.50;27.00;;;;;;;;5069598;27;50382;-73
2023/04/02 19:56:53;;;;;;;;;28.00;28.00;;;;;;;;5074568;27;50330;-73
2023/04/02 19:59:18;;;;;;;;;30.75;26.00;;;;;;;;5068592;27;49851;-74
2023/04/02 20:01:43;;;;;;;;;35.25;30.00;;;;;;;;5073163;27;49603;-74
2023/04/02 20:04:09;;;;;;;;;37.00;33.25;;;;;;;;5065528;27;49894;-74
2023/04/02 20:06:34;;;;;;;;;36.50;33.50;;;;;;;;5072126;27;50081;-73
2023/04/02 20:09:00;;;;;;;;;36.75;31.50;;;;;;;;5074855;27;51239;-74
2023/04/02 20:11:25;;;;;;;;;34.75;29.00;;;;;;;;5064277;27;49886;-73
2023/04/02 20:13:51;;;;;;;;;38.50;30.50;;;;;;;;5070257;27;49965;-73
2023/04/02 20:16:17;;;;;;;;;27.50;26.50;;;;;;;;5068600;27;50105;-73
2023/04/02 20:18:42;;;;;;;;;36.50;29.25;;;;;;;;5068366;27;50539;-74
2023/04/02 20:21:08;;;;;;;;;34.75;26.25;;;;;;;;5069770;27;49883;-74
2023/04/02 20:23:33;;;;;;;;;32.25;31.00;;;;;;;;5072845;27;49833;-74
2023/04/02 20:25:59;;;;;;;;;26.00;26.00;;;;;;;;5079156;27;50351;-74
2023/04/02 20:28:25;;;;;;;;;32.75;30.50;;;;;;;;5076176;27;50763;-74
2023/04/02 20:30:51;;;;;;;;;31.75;25.75;;;;;;;;5071711;27;49864;-73
2023/04/02 20:33:16;;;;;;;;;29.75;27.00;;;;;;;;5071557;27;49899;-74
2023/04/02 20:35:42;;;;;;;;;34.00;28.00;;;;;;;;5070124;27;50033;-74
2023/04/02 20:38:07;;;;;;;;;31.50;30.00;;;;;;;;5069408;27;49766;-75
2023/04/02 20:40:33;;;;;;;;;33.75;30.25;;;;;;;;5076719;27;49775;-74
2023/04/02 20:42:58;;;;;;;;;31.50;28.25;;;;;;;;5071929;27;50151;-74
2023/04/02 20:45:26;;;;;;;;;29.50;28.00;;;;;;;;5071089;27;50047;-74
2023/04/02 20:47:51;;;;;;;;;31.25;25.50;;;;;;;;5073455;27;51071;-74
2023/04/02 20:50:16;;;;;;;;;37.50;32.25;;;;;;;;5079108;27;50292;-74
2023/04/02 20:52:42;;;;;;;;;35.75;30.25;;;;;;;;5069637;27;50087;-73
2023/04/02 20:55:07;;;;;;;;;34.00;30.50;;;;;;;;5066918;27;50372;-74
2023/04/02 20:57:32;;;;;;;;;41.50;37.50;;;;;;;;5072929;27;51500;-74
2023/04/02 20:59:58;;;;;;;;;32.50;29.25;;;;;;;;5081837;27;49936;-74
